createdAt,value
2022-08-19T19:10:56.826Z,37.00
2022-08-19T19:13:29.758Z,36.81
2022-08-19T19:16:04.543Z,36.61
2022-08-19T19:18:34.861Z,36.75
2022-08-19T19:21:05.629Z,37.29
2022-08-19T19:23:40.762Z,37.17
2022-08-19T19:26:13.004Z,36.93
2022-08-19T19:28:46.454Z,37.53
2022-08-19T19:31:20.509Z,37.68
2022-08-19T19:33:50.795Z,37.63
2022-08-19T19:36:21.231Z,37.69
2022-08-19T19:38:51.787Z,37.87
2022-08-19T19:41:24.507Z,38.02
2022-08-19T19:44:30.261Z,38.16
2022-08-19T19:46:49.051Z,38.14
2022-08-19T19:49:19.348Z,38.22
2022-08-19T19:51:49.624Z,38.25
2022-08-19T19:54:23.557Z,38.22
2022-08-19T19:56:54.202Z,38.61
2022-08-19T19:59:24.557Z,38.76
2022-08-19T20:01:56.757Z,38.71
2022-08-19T20:04:30.540Z,38.80
2022-08-19T20:07:00.756Z,39.00
2022-08-19T20:09:49.736Z,39.06
2022-08-19T20:12:23.558Z,38.84
2022-08-19T20:14:53.953Z,39.24
2022-08-19T20:17:27.204Z,39.22
2022-08-19T20:19:58.262Z,39.19
2022-08-19T20:22:28.615Z,39.34
2022-08-19T20:25:06.708Z,39.09
2022-08-19T20:27:39.814Z,39.63
2022-08-19T20:30:19.531Z,39.49
2022-08-19T20:32:50.843Z,39.21
2022-08-19T20:35:21.811Z,39.43
2022-08-19T20:37:58.113Z,39.67
2022-08-19T20:40:29.465Z,39.89
2022-08-19T20:42:59.685Z,39.70
2022-08-19T20:45:32.831Z,39.71
2022-08-19T20:48:06.028Z,40.16
2022-08-19T20:50:36.961Z,40.19
2022-08-19T20:53:16.398Z,40.19
2022-08-19T20:55:51.417Z,40.12
2022-08-19T20:58:23.196Z,39.94
2022-08-19T21:00:57.431Z,40.48
2022-08-19T21:03:35.226Z,40.55
2022-08-19T21:06:14.704Z,40.37
2022-08-19T21:08:45.342Z,40.52
2022-08-19T21:11:20.708Z,40.67
2022-08-19T21:13:51.180Z,40.73
2022-08-19T21:16:21.431Z,40.83
2022-08-19T21:18:51.664Z,40.68
2022-08-19T21:21:21.938Z,40.73
2022-08-19T21:23:52.316Z,41.02
2022-08-19T21:26:22.648Z,40.92
2022-08-19T21:28:52.831Z,41.17
2022-08-19T21:31:23.167Z,41.00
2022-08-19T21:33:54.234Z,41.13
2022-08-19T21:36:24.552Z,41.37
2022-08-19T21:38:55.259Z,41.37
2022-08-19T21:41:25.469Z,41.09
2022-08-19T21:43:55.757Z,41.04
2022-08-19T21:46:26.061Z,41.10
2022-08-19T21:48:56.241Z,40.99
2022-08-19T21:51:26.468Z,41.23
2022-08-19T21:53:58.177Z,41.33
2022-08-19T21:56:29.013Z,41.33
2022-08-19T21:58:59.263Z,41.21
2022-08-19T22:01:29.734Z,41.09
2022-08-19T22:04:00.023Z,41.16
2022-08-19T22:06:30.157Z,41.30
2022-08-19T22:09:00.405Z,41.04
2022-08-19T22:11:30.681Z,41.16
2022-08-19T22:14:01.576Z,41.55
2022-08-19T22:16:34.680Z,41.14
2022-08-19T22:19:05.138Z,41.11
2022-08-19T22:21:40.077Z,41.47
2022-08-19T22:24:10.835Z,41.40
2022-08-19T22:26:41.055Z,41.06
2022-08-19T22:29:11.439Z,41.30
2022-08-19T22:31:54.248Z,41.51
2022-08-19T22:34:25.298Z,41.40
2022-08-19T22:36:55.497Z,41.23
2022-08-19T22:39:25.591Z,41.40
2022-08-19T22:41:56.634Z,41.30
2022-08-19T22:44:26.961Z,42.41
2022-08-19T22:46:57.334Z,42.46
2022-08-19T22:49:27.563Z,42.84
2022-08-19T22:52:17.878Z,42.33
2022-08-19T22:54:54.072Z,42.89
2022-08-19T22:57:24.324Z,42.67
2022-08-19T23:00:00.995Z,42.74
2022-08-19T23:02:38.653Z,42.12
2022-08-19T23:05:24.177Z,42.52
2022-08-19T23:07:57.502Z,42.74
2022-08-19T23:10:29.270Z,42.54
2022-08-19T23:13:00.273Z,42.44
2022-08-19T23:15:32.845Z,42.30
2022-08-19T23:18:05.299Z,42.38
2022-08-19T23:20:38.819Z,42.24
2022-08-19T23:23:12.636Z,42.41
2022-08-19T23:25:42.858Z,42.01
2022-08-19T23:28:32.538Z,42.59
2022-08-19T23:31:03.062Z,42.41
2022-08-19T23:33:50.834Z,42.46
2022-08-19T23:36:23.334Z,42.16
2022-08-19T23:38:53.613Z,42.55
2022-08-19T23:41:27.290Z,42.50
2022-08-19T23:43:58.095Z,42.64
2022-08-19T23:46:30.604Z,42.78
2022-08-19T23:49:01.216Z,43.03
2022-08-19T23:51:31.470Z,43.90
2022-08-19T23:54:01.679Z,43.61
2022-08-19T23:56:32.001Z,44.15
2022-08-19T23:59:02.234Z,44.00
